createdAt,value
2022-10-23T00:00:51.020Z,3.38
2022-10-23T00:01:54.524Z,1.50
2022-10-23T00:02:57.189Z,2.38
2022-10-23T00:04:02.451Z,1.92
2022-10-23T00:05:05.064Z,1.77
2022-10-23T00:06:15.038Z,1.33
2022-10-23T00:07:17.695Z,1.30
2022-10-23T00:08:22.562Z,1.38
2022-10-23T00:09:25.570Z,2.60
2022-10-23T00:10:29.958Z,2.20
2022-10-23T00:11:40.027Z,2.47
2022-10-23T00:12:43.879Z,1.20
2022-10-23T00:13:47.498Z,1.83
2022-10-23T00:14:51.005Z,2.55
2022-10-23T00:16:00.062Z,3.67
2022-10-23T00:17:10.026Z,2.80
2022-10-23T00:18:12.627Z,1.83
2022-10-23T00:19:16.082Z,1.88
2022-10-23T00:20:18.978Z,3.45
2022-10-23T00:21:30.087Z,1.67
2022-10-23T00:22:32.729Z,1.48
2022-10-23T00:23:37.732Z,1.85
2022-10-23T00:24:40.289Z,1.38
2022-10-23T00:25:43.841Z,1.45
2022-10-23T00:26:53.025Z,2.30
2022-10-23T00:27:56.523Z,1.45
2022-10-23T00:28:59.072Z,2.47
2022-10-23T00:30:02.537Z,3.28
2022-10-23T00:31:05.534Z,1.85
2022-10-23T00:32:15.032Z,1.67
2022-10-23T00:33:17.590Z,1.65
2022-10-23T00:34:21.128Z,0.80
2022-10-23T00:35:23.710Z,1.90
2022-10-23T00:36:27.190Z,1.25
2022-10-23T00:37:36.045Z,1.90
2022-10-23T00:38:41.051Z,1.75
2022-10-23T00:39:43.581Z,4.28
2022-10-23T00:40:47.244Z,2.38
2022-10-23T00:41:49.841Z,2.17
2022-10-23T00:43:00.012Z,1.65
2022-10-23T00:44:08.291Z,0.77
2022-10-23T00:45:21.857Z,2.10
2022-10-23T00:46:24.437Z,0.70
2022-10-23T00:47:41.047Z,2.22
2022-10-23T00:48:50.329Z,2.03
2022-10-23T00:50:00.038Z,1.58
2022-10-23T00:51:03.631Z,3.83
2022-10-23T00:52:08.021Z,1.58
2022-10-23T00:53:12.584Z,3.17
2022-10-23T00:54:25.077Z,2.75
2022-10-23T00:55:36.038Z,2.17
2022-10-23T00:56:40.216Z,2.75
2022-10-23T00:57:44.877Z,2.33
2022-10-23T00:58:47.431Z,1.92
2022-10-23T00:59:57.021Z,1.83
2022-10-23T01:00:59.622Z,2.60
2022-10-23T01:02:03.346Z,1.40
2022-10-23T01:03:06.011Z,1.52
2022-10-23T01:04:09.971Z,2.05
2022-10-23T01:05:19.046Z,1.17
2022-10-23T01:06:27.702Z,1.63
2022-10-23T01:07:32.691Z,1.40
2022-10-23T01:08:39.519Z,1.95
2022-10-23T01:09:47.361Z,2.55
2022-10-23T01:11:01.033Z,1.67
2022-10-23T01:12:14.010Z,2.30
2022-10-23T01:13:19.101Z,1.30
2022-10-23T01:14:24.555Z,1.83
2022-10-23T01:15:31.138Z,1.95
2022-10-23T01:16:45.044Z,1.17
2022-10-23T01:17:51.901Z,1.67
2022-10-23T01:19:05.033Z,1.95
2022-10-23T01:20:26.392Z,1.45
2022-10-23T01:21:39.059Z,1.50
2022-10-23T01:22:54.340Z,2.28
2022-10-23T01:24:11.151Z,1.45
2022-10-23T01:25:23.360Z,1.75
2022-10-23T01:26:43.071Z,1.98
2022-10-23T01:27:52.387Z,1.77
2022-10-23T01:28:56.837Z,3.35
2022-10-23T01:30:04.011Z,3.10
2022-10-23T01:31:10.472Z,2.65
2022-10-23T01:32:22.024Z,2.50
2022-10-23T01:33:26.625Z,3.13
2022-10-23T01:34:32.150Z,2.70
2022-10-23T01:35:37.856Z,3.08
2022-10-23T01:36:43.325Z,2.50
2022-10-23T01:37:53.081Z,1.42
2022-10-23T01:38:59.657Z,2.08
2022-10-23T01:40:04.270Z,1.55
2022-10-23T01:41:11.865Z,2.13
2022-10-23T01:42:17.272Z,2.63
2022-10-23T01:43:32.046Z,2.92
2022-10-23T01:44:44.020Z,1.67
2022-10-23T01:45:50.829Z,1.88
2022-10-23T01:46:54.096Z,2.88
2022-10-23T01:48:05.208Z,2.35
2022-10-23T01:49:15.043Z,3.00
2022-10-23T01:50:26.049Z,2.70
2022-10-23T01:51:29.743Z,3.10
2022-10-23T01:52:33.348Z,2.85
2022-10-23T01:53:45.081Z,1.77
2022-10-23T01:54:49.322Z,2.72
2022-10-23T01:55:52.078Z,2.35
2022-10-23T01:56:56.365Z,2.28
2022-10-23T01:57:59.538Z,3.33
2022-10-23T01:59:14.052Z,3.15
2022-10-23T02:00:17.769Z,1.58
2022-10-23T02:01:24.027Z,2.42
2022-10-23T02:02:27.586Z,2.20
2022-10-23T02:03:33.083Z,2.67
2022-10-23T02:04:44.085Z,2.03
2022-10-23T02:05:47.711Z,1.90
2022-10-23T02:06:50.376Z,3.25
2022-10-23T02:07:54.516Z,2.17
2022-10-23T02:08:57.227Z,2.85
2022-10-23T02:10:07.100Z,3.28
2022-10-23T02:11:11.324Z,1.58
2022-10-23T02:12:16.278Z,3.05
2022-10-23T02:13:24.792Z,2.40
2022-10-23T02:14:34.923Z,2.88
2022-10-23T02:15:47.110Z,1.90
2022-10-23T02:16:52.619Z,2.50
2022-10-23T02:18:02.103Z,1.70
2022-10-23T02:19:10.190Z,2.58
2022-10-23T02:20:16.232Z,3.17
2022-10-23T02:21:27.060Z,2.55
2022-10-23T02:22:39.115Z,4.60
2022-10-23T02:23:45.124Z,1.52
2022-10-23T02:24:51.192Z,5.07
2022-10-23T02:25:55.333Z,2.67
2022-10-23T02:27:01.138Z,3.22
2022-10-23T02:28:13.088Z,2.20
2022-10-23T02:29:25.448Z,3.10
2022-10-23T02:30:30.371Z,1.55
2022-10-23T02:31:34.081Z,4.40
2022-10-23T02:32:37.519Z,2.30
2022-10-23T02:33:41.365Z,3.65
2022-10-23T02:34:50.092Z,3.67
2022-10-23T02:35:53.601Z,3.17
2022-10-23T02:36:56.153Z,3.03
2022-10-23T02:38:00.991Z,2.53
2022-10-23T02:39:03.874Z,4.80
2022-10-23T02:40:15.126Z,2.05
2022-10-23T02:41:20.130Z,3.00
2022-10-23T02:42:25.857Z,2.03
2022-10-23T02:43:32.620Z,2.50
2022-10-23T02:44:40.312Z,2.20
2022-10-23T02:45:55.115Z,1.52
2022-10-23T02:47:05.567Z,1.55
2022-10-23T02:48:33.033Z,3.47
2022-10-23T02:49:40.026Z,1.52
2022-10-23T02:50:48.735Z,1.98
2022-10-23T02:52:02.071Z,2.55
2022-10-23T02:53:09.113Z,1.45
2022-10-23T02:54:16.500Z,2.35
2022-10-23T02:55:25.266Z,1.77
2022-10-23T02:56:38.720Z,2.17
2022-10-23T02:57:45.345Z,1.58
2022-10-23T02:59:01.077Z,2.57
2022-10-23T03:00:08.284Z,2.22
2022-10-23T03:01:21.169Z,2.95
2022-10-23T03:02:25.981Z,1.77
2022-10-23T03:03:31.945Z,1.77
2022-10-23T03:04:34.586Z,2.50
2022-10-23T03:05:40.108Z,1.83
2022-10-23T03:06:49.134Z,2.47
2022-10-23T03:07:52.602Z,2.43
2022-10-23T03:08:55.946Z,3.83
2022-10-23T03:09:59.395Z,2.47
2022-10-23T03:11:02.839Z,1.37
2022-10-23T03:12:12.103Z,2.00
2022-10-23T03:13:15.690Z,3.03
2022-10-23T03:14:18.290Z,2.80
2022-10-23T03:15:21.835Z,3.33
2022-10-23T03:16:26.722Z,2.17
2022-10-23T03:17:36.085Z,2.20
2022-10-23T03:18:39.541Z,2.03
2022-10-23T03:19:42.082Z,2.57
2022-10-23T03:20:45.623Z,2.13
2022-10-23T03:21:48.179Z,1.67
2022-10-23T03:22:58.131Z,1.67
2022-10-23T03:24:00.742Z,1.20
2022-10-23T03:25:04.191Z,1.97
2022-10-23T03:26:06.888Z,1.03
2022-10-23T03:27:11.426Z,3.27
2022-10-23T03:28:21.099Z,1.90
2022-10-23T03:29:23.688Z,3.13
2022-10-23T03:30:27.238Z,2.50
2022-10-23T03:31:31.120Z,2.70
2022-10-23T03:32:34.601Z,2.70
2022-10-23T03:33:44.126Z,1.53
2022-10-23T03:34:47.572Z,2.03
2022-10-23T03:35:50.191Z,1.93
2022-10-23T03:36:53.741Z,1.13
2022-10-23T03:37:56.272Z,0.97
2022-10-23T03:39:07.094Z,2.20
2022-10-23T03:40:11.028Z,2.73
2022-10-23T03:41:13.604Z,1.40
2022-10-23T03:42:17.167Z,2.37
2022-10-23T03:43:20.695Z,1.63
2022-10-23T03:44:30.088Z,2.47
2022-10-23T03:45:33.613Z,1.43
2022-10-23T03:46:44.070Z,2.03
2022-10-23T03:48:08.056Z,0.87
2022-10-23T03:49:17.119Z,1.97
2022-10-23T03:50:20.790Z,1.97
2022-10-23T03:51:23.364Z,2.10
2022-10-23T03:52:26.839Z,3.10
2022-10-23T03:53:29.396Z,1.33
2022-10-23T03:54:40.072Z,1.53
2022-10-23T03:55:42.611Z,2.70
2022-10-23T03:56:46.090Z,2.33
2022-10-23T03:57:48.590Z,1.20
2022-10-23T03:58:52.076Z,2.00
2022-10-23T04:00:01.075Z,3.27
2022-10-23T04:01:04.595Z,2.93
2022-10-23T04:02:15.092Z,2.10
2022-10-23T04:03:18.680Z,1.13
2022-10-23T04:04:21.199Z,1.63
2022-10-23T04:05:24.651Z,2.03
2022-10-23T04:06:34.079Z,2.13
2022-10-23T04:07:38.177Z,1.73
2022-10-23T04:08:40.745Z,1.57
2022-10-23T04:09:44.182Z,1.40
2022-10-23T04:10:46.704Z,1.63
2022-10-23T04:11:57.133Z,2.53
2022-10-23T04:12:59.710Z,2.53
2022-10-23T04:14:03.173Z,1.23
2022-10-23T04:15:07.948Z,2.00
2022-10-23T04:16:10.458Z,1.07
2022-10-23T04:17:22.516Z,1.87
2022-10-23T04:18:26.041Z,2.57
2022-10-23T04:19:28.538Z,1.77
2022-10-23T04:20:32.057Z,1.47
2022-10-23T04:21:35.540Z,2.40
2022-10-23T04:22:45.651Z,2.17
2022-10-23T04:23:48.575Z,2.13
2022-10-23T04:24:52.016Z,2.00
2022-10-23T04:25:57.258Z,2.53
2022-10-23T04:27:00.686Z,1.20
2022-10-23T04:28:10.133Z,2.37
2022-10-23T04:29:13.618Z,1.27
2022-10-23T04:30:16.178Z,2.83
2022-10-23T04:31:19.656Z,2.40
2022-10-23T04:32:23.478Z,2.20
2022-10-23T04:33:34.348Z,3.23
2022-10-23T04:34:36.868Z,1.83
2022-10-23T04:35:40.350Z,2.00
2022-10-23T04:36:43.447Z,1.93
2022-10-23T04:37:47.199Z,2.13
2022-10-23T04:38:56.120Z,4.30
2022-10-23T04:39:59.641Z,2.93
2022-10-23T04:41:02.162Z,2.40
2022-10-23T04:42:05.752Z,3.60
2022-10-23T04:43:08.284Z,3.57
2022-10-23T04:44:18.103Z,1.63
2022-10-23T04:45:20.644Z,2.33
2022-10-23T04:46:24.090Z,1.40
2022-10-23T04:47:28.051Z,2.53
2022-10-23T04:48:52.102Z,2.47
2022-10-23T04:50:01.139Z,1.57
2022-10-23T04:51:07.193Z,2.27
2022-10-23T04:52:09.724Z,1.53
2022-10-23T04:53:13.175Z,2.53
2022-10-23T04:54:15.707Z,1.97
2022-10-23T04:55:26.109Z,1.37
2022-10-23T04:56:28.714Z,2.67
2022-10-23T04:57:32.173Z,2.53
2022-10-23T04:58:34.695Z,1.77
2022-10-23T04:59:45.112Z,2.30
2022-10-23T05:00:48.153Z,1.37
2022-10-23T05:01:51.779Z,1.37
2022-10-23T05:03:02.113Z,3.80
2022-10-23T05:04:05.604Z,2.57
2022-10-23T05:05:08.677Z,2.67
2022-10-23T05:06:12.153Z,4.10
2022-10-23T05:08:25.616Z,2.83
2022-10-23T05:09:28.252Z,2.40
2022-10-23T05:10:32.071Z,3.27
2022-10-23T05:11:35.522Z,3.47
2022-10-23T05:12:44.105Z,3.00
2022-10-23T05:13:47.672Z,1.47
2022-10-23T05:14:57.129Z,2.60
2022-10-23T05:16:01.260Z,2.03
2022-10-23T05:17:05.238Z,2.40
2022-10-23T05:18:12.857Z,1.83
2022-10-23T05:19:22.006Z,1.97
2022-10-23T05:20:35.124Z,2.40
2022-10-23T05:21:38.603Z,1.60
2022-10-23T05:22:43.088Z,2.33
2022-10-23T05:23:46.892Z,0.90
2022-10-23T05:24:50.912Z,1.10
2022-10-23T05:26:01.123Z,1.97
2022-10-23T05:27:03.705Z,4.03
2022-10-23T05:28:07.247Z,2.27
2022-10-23T05:29:09.802Z,2.47
2022-10-23T05:30:13.743Z,2.00
2022-10-23T05:31:23.121Z,1.97
2022-10-23T05:32:34.141Z,2.50
2022-10-23T05:33:39.223Z,1.13
2022-10-23T05:34:42.634Z,1.83
2022-10-23T05:35:46.516Z,1.57
2022-10-23T05:36:49.163Z,2.17
2022-10-23T05:38:00.118Z,0.73
2022-10-23T05:39:03.084Z,3.53
2022-10-23T05:40:06.898Z,1.80
2022-10-23T05:41:09.560Z,1.57
2022-10-23T05:42:19.148Z,1.67
2022-10-23T05:43:22.616Z,2.67
2022-10-23T05:44:25.177Z,1.80
2022-10-23T05:45:28.659Z,2.50
2022-10-23T05:46:38.141Z,1.93
2022-10-23T05:47:41.632Z,1.87
2022-10-23T05:50:09.345Z,1.27
2022-10-23T05:51:24.120Z,0.87
2022-10-23T05:52:26.734Z,3.00
2022-10-23T05:53:30.186Z,1.97
2022-10-23T05:54:32.779Z,2.00
2022-10-23T05:55:43.122Z,1.67
2022-10-23T05:56:45.698Z,2.40
2022-10-23T05:57:49.275Z,3.20
2022-10-23T05:58:58.107Z,1.93
2022-10-23T06:00:02.344Z,2.50
2022-10-23T06:01:08.304Z,1.93
2022-10-23T06:02:18.220Z,3.07
2022-10-23T06:03:20.790Z,2.60
2022-10-23T06:04:25.560Z,2.27
2022-10-23T06:05:28.189Z,3.17
2022-10-23T06:06:38.159Z,3.77
2022-10-23T06:07:42.398Z,2.23
2022-10-23T06:08:45.132Z,1.43
2022-10-23T06:09:48.557Z,3.23
2022-10-23T06:10:51.213Z,3.13
2022-10-23T06:12:01.134Z,2.77
2022-10-23T06:13:03.729Z,3.23
2022-10-23T06:14:14.158Z,2.93
2022-10-23T06:15:16.757Z,3.50
2022-10-23T06:16:21.291Z,3.07
2022-10-23T06:17:23.863Z,3.20
2022-10-23T06:18:34.118Z,1.83
2022-10-23T06:19:37.990Z,2.67
2022-10-23T06:20:41.516Z,2.80
2022-10-23T06:21:44.077Z,2.57
2022-10-23T06:22:54.357Z,3.27
2022-10-23T06:24:03.132Z,2.03
2022-10-23T06:25:13.333Z,4.17
2022-10-23T06:26:16.758Z,3.37
2022-10-23T06:27:20.262Z,2.80
2022-10-23T06:28:29.138Z,1.97
2022-10-23T06:29:39.142Z,2.83
2022-10-23T06:30:41.724Z,3.07
2022-10-23T06:31:45.420Z,2.57
2022-10-23T06:32:47.988Z,2.63
2022-10-23T06:33:51.857Z,3.17
2022-10-23T06:35:05.144Z,3.87
2022-10-23T06:36:10.494Z,3.60
2022-10-23T06:37:14.149Z,4.10
2022-10-23T06:38:16.691Z,2.33
2022-10-23T06:39:31.175Z,3.07
2022-10-23T06:40:34.797Z,3.50
2022-10-23T06:41:39.827Z,3.00
2022-10-23T06:42:42.634Z,3.00
2022-10-23T06:43:46.478Z,3.40
2022-10-23T06:44:56.114Z,4.10
2022-10-23T06:46:02.096Z,3.03
2022-10-23T06:47:11.251Z,1.87
2022-10-23T06:48:35.134Z,2.17
2022-10-23T06:49:38.820Z,2.10
2022-10-23T06:50:42.663Z,2.03
2022-10-23T06:51:46.242Z,3.13
2022-10-23T06:52:55.167Z,3.00
2022-10-23T06:53:58.923Z,2.70
2022-10-23T06:55:01.480Z,2.40
2022-10-23T06:56:13.166Z,3.37
2022-10-23T06:57:15.731Z,3.53
2022-10-23T06:58:19.223Z,2.73
2022-10-23T06:59:21.781Z,1.47
2022-10-23T07:00:32.281Z,2.63
2022-10-23T07:01:35.163Z,1.53
2022-10-23T07:02:38.911Z,1.43
2022-10-23T07:03:41.522Z,3.50
2022-10-23T07:04:45.004Z,1.73
2022-10-23T07:05:55.157Z,2.63
2022-10-23T07:06:58.673Z,2.83
2022-10-23T07:08:01.352Z,2.57
2022-10-23T07:09:04.833Z,2.90
2022-10-23T07:10:07.600Z,3.40
2022-10-23T07:11:18.172Z,2.40
2022-10-23T07:12:20.752Z,2.03
2022-10-23T07:13:25.073Z,1.70
2022-10-23T07:14:27.707Z,2.07
2022-10-23T07:15:38.143Z,1.60
2022-10-23T07:16:48.134Z,3.17
2022-10-23T07:17:57.155Z,2.17
2022-10-23T07:19:01.968Z,1.63
2022-10-23T07:20:04.850Z,1.10
2022-10-23T07:21:09.806Z,2.60
2022-10-23T07:22:15.024Z,2.40
2022-10-23T07:23:26.387Z,1.87
2022-10-23T07:24:31.434Z,1.50
2022-10-23T07:25:34.052Z,1.83
2022-10-23T07:26:37.633Z,0.63
2022-10-23T07:27:40.927Z,1.83
2022-10-23T07:28:51.182Z,3.00
2022-10-23T07:29:54.958Z,2.20
2022-10-23T07:30:57.889Z,1.47
2022-10-23T07:32:02.036Z,2.07
2022-10-23T07:33:04.676Z,1.40
2022-10-23T07:34:15.161Z,2.90
2022-10-23T07:35:24.180Z,1.63
2022-10-23T07:36:29.071Z,2.73
2022-10-23T07:37:31.630Z,1.93
2022-10-23T07:38:35.317Z,1.77
2022-10-23T07:39:37.916Z,1.70
2022-10-23T07:40:48.159Z,1.83
2022-10-23T07:41:50.694Z,3.23
2022-10-23T07:42:54.183Z,2.13
2022-10-23T07:43:56.713Z,2.43
2022-10-23T07:45:00.209Z,2.43
2022-10-23T07:46:09.200Z,2.70
2022-10-23T07:47:13.712Z,1.83
2022-10-23T07:48:36.140Z,2.47
2022-10-23T07:49:39.662Z,1.77
2022-10-23T07:50:42.255Z,1.17
2022-10-23T07:51:53.257Z,1.90
2022-10-23T07:52:57.227Z,1.87
2022-10-23T07:54:00.652Z,2.43
2022-10-23T07:55:03.188Z,2.93
2022-10-23T07:56:12.056Z,2.20
2022-10-23T07:57:21.174Z,3.20
2022-10-23T07:58:24.679Z,1.70
2022-10-23T07:59:28.555Z,2.03
2022-10-23T08:00:31.146Z,2.77
2022-10-23T08:01:35.944Z,2.73
2022-10-23T08:02:45.397Z,2.87
2022-10-23T08:03:49.037Z,2.83
2022-10-23T08:04:51.604Z,2.77
2022-10-23T08:05:55.347Z,1.10
2022-10-23T08:07:07.168Z,3.00
2022-10-23T08:08:17.193Z,1.10
2022-10-23T08:09:20.691Z,1.53
2022-10-23T08:10:23.334Z,2.90
2022-10-23T08:11:30.984Z,2.70
2022-10-23T08:12:40.285Z,2.00
2022-10-23T08:13:44.335Z,2.37
2022-10-23T08:14:46.891Z,2.63
2022-10-23T08:15:51.297Z,1.87
2022-10-23T08:16:54.058Z,1.67
2022-10-23T08:18:04.176Z,1.50
2022-10-23T08:19:08.631Z,1.43
2022-10-23T08:20:13.671Z,2.13
2022-10-23T08:21:17.949Z,2.50
2022-10-23T08:22:21.831Z,3.37
2022-10-23T08:23:32.177Z,1.97
2022-10-23T08:24:42.194Z,1.20
2022-10-23T08:25:45.141Z,1.13
2022-10-23T08:26:50.363Z,1.43
2022-10-23T08:27:52.920Z,1.63
2022-10-23T08:29:03.180Z,1.97
2022-10-23T08:30:06.116Z,2.43
2022-10-23T08:31:10.532Z,2.03
2022-10-23T08:32:13.136Z,1.67
2022-10-23T08:33:23.177Z,2.53
2022-10-23T08:34:32.170Z,1.47
2022-10-23T08:35:45.171Z,1.93
2022-10-23T08:36:47.740Z,1.67
2022-10-23T08:37:52.637Z,1.83
2022-10-23T08:38:56.677Z,1.40
2022-10-23T08:40:07.196Z,1.37
2022-10-23T08:41:16.636Z,1.80
2022-10-23T08:42:22.157Z,1.70
2022-10-23T08:43:30.340Z,1.27
2022-10-23T08:44:42.183Z,1.27
2022-10-23T08:45:53.207Z,2.17
2022-10-23T08:47:01.553Z,1.43
2022-10-23T08:48:07.663Z,1.87
2022-10-23T08:49:25.706Z,1.47
2022-10-23T08:50:32.108Z,0.60
2022-10-23T08:51:43.191Z,1.33
2022-10-23T08:52:48.822Z,0.87
2022-10-23T08:53:54.392Z,1.23
2022-10-23T08:55:01.960Z,1.07
2022-10-23T08:56:12.201Z,1.73
2022-10-23T08:57:23.250Z,0.83
2022-10-23T08:58:29.642Z,0.93
2022-10-23T08:59:39.880Z,0.40
2022-10-23T09:00:47.084Z,0.55
2022-10-23T09:01:59.332Z,0.50
2022-10-23T09:03:02.894Z,0.70
2022-10-23T09:04:07.052Z,0.60
2022-10-23T09:05:13.649Z,1.13
2022-10-23T09:06:21.937Z,0.63
2022-10-23T09:07:36.183Z,0.28
2022-10-23T09:08:49.411Z,0.88
2022-10-23T09:09:59.175Z,0.63
2022-10-23T09:11:05.485Z,1.55
2022-10-23T09:12:17.263Z,1.57
2022-10-23T09:13:31.307Z,0.63
2022-10-23T09:14:42.670Z,0.30
2022-10-23T09:15:48.693Z,0.47
2022-10-23T09:16:57.547Z,0.93
2022-10-23T09:18:11.191Z,1.17
2022-10-23T09:19:17.000Z,0.47
2022-10-23T09:20:21.761Z,0.13
2022-10-23T09:21:26.841Z,0.53
2022-10-23T09:22:30.761Z,0.60
2022-10-23T09:23:40.234Z,1.10
2022-10-23T09:24:44.826Z,0.87
2022-10-23T09:25:51.020Z,1.23
2022-10-23T09:26:54.565Z,0.37
2022-10-23T09:28:02.892Z,0.23
2022-10-23T09:29:25.233Z,0.60
2022-10-23T09:30:33.060Z,0.50
2022-10-23T09:31:35.588Z,0.50
2022-10-23T09:32:39.898Z,1.07
2022-10-23T09:33:49.210Z,0.60
2022-10-23T09:34:54.084Z,0.67
2022-10-23T09:35:59.363Z,0.37
2022-10-23T09:37:02.649Z,1.03
2022-10-23T09:38:06.241Z,0.57
2022-10-23T09:39:28.176Z,1.53
2022-10-23T09:40:34.595Z,0.43
2022-10-23T09:41:39.945Z,0.30
2022-10-23T09:42:52.539Z,2.30
2022-10-23T09:44:09.245Z,0.40
2022-10-23T09:45:22.513Z,0.70
2022-10-23T09:46:26.064Z,0.67
2022-10-23T09:47:28.688Z,1.13
2022-10-23T09:48:39.382Z,0.77
2022-10-23T09:49:57.193Z,1.07
2022-10-23T09:51:02.155Z,1.60
2022-10-23T09:52:12.219Z,0.23
2022-10-23T09:53:17.311Z,0.33
2022-10-23T09:54:21.413Z,0.53
2022-10-23T09:55:32.185Z,0.30
2022-10-23T09:56:36.832Z,0.20
2022-10-23T09:57:50.206Z,1.03
2022-10-23T09:58:56.038Z,0.17
2022-10-23T10:00:07.191Z,0.53
2022-10-23T10:01:23.974Z,0.40
2022-10-23T10:02:29.762Z,0.30
2022-10-23T10:03:40.208Z,1.33
2022-10-23T10:04:43.109Z,0.53
2022-10-23T10:05:53.228Z,0.87
2022-10-23T10:06:58.303Z,0.10
2022-10-23T10:08:05.448Z,1.17
2022-10-23T10:09:10.133Z,0.80
2022-10-23T10:10:16.203Z,0.33
2022-10-23T10:11:28.194Z,0.33
2022-10-23T10:12:35.821Z,0.73
2022-10-23T10:14:02.216Z,0.40
2022-10-23T10:15:12.956Z,0.53
2022-10-23T10:16:21.825Z,0.90
2022-10-23T10:17:31.136Z,1.77
2022-10-23T10:18:38.918Z,0.73
2022-10-23T10:19:56.179Z,1.40
2022-10-23T10:21:04.689Z,1.97
2022-10-23T10:22:12.787Z,0.70
2022-10-23T10:23:20.228Z,0.10
2022-10-23T10:24:32.206Z,0.40
2022-10-23T10:25:38.163Z,0.23
2022-10-23T10:26:50.222Z,0.23
2022-10-23T10:27:57.239Z,0.10
2022-10-23T10:29:03.395Z,0.30
2022-10-23T10:30:12.431Z,1.10
2022-10-23T10:31:26.260Z,0.83
2022-10-23T10:32:32.389Z,0.60
2022-10-23T10:33:37.925Z,0.27
2022-10-23T10:34:44.143Z,0.57
2022-10-23T10:35:52.927Z,0.23
2022-10-23T10:37:03.204Z,0.30
2022-10-23T10:38:15.270Z,0.40
2022-10-23T10:39:23.582Z,0.47
2022-10-23T10:40:28.857Z,1.03
2022-10-23T10:41:39.638Z,0.43
2022-10-23T10:42:57.229Z,0.33
2022-10-23T10:44:16.370Z,0.40
2022-10-23T10:45:27.878Z,0.17
2022-10-23T10:46:33.763Z,0.50
2022-10-23T10:47:49.254Z,0.53
2022-10-23T10:49:02.417Z,0.10
2022-10-23T10:50:10.009Z,0.30
2022-10-23T10:51:16.753Z,0.67
2022-10-23T10:52:22.762Z,0.93
2022-10-23T10:53:35.242Z,0.77
2022-10-23T10:54:44.073Z,0.47
2022-10-23T10:55:50.716Z,0.73
2022-10-23T10:56:53.284Z,1.07
2022-10-23T10:58:00.244Z,0.10
2022-10-23T10:59:11.277Z,0.60
2022-10-23T11:00:15.867Z,1.13
2022-10-23T11:01:26.959Z,0.97
2022-10-23T11:02:30.327Z,0.40
2022-10-23T11:03:39.958Z,0.40
2022-10-23T11:04:53.269Z,0.10
2022-10-23T11:07:02.673Z,0.10
2022-10-23T11:08:09.395Z,0.93
2022-10-23T11:09:20.262Z,0.83
2022-10-23T11:10:31.220Z,0.80
2022-10-23T11:11:36.814Z,0.53
2022-10-23T11:12:39.401Z,1.07
2022-10-23T11:13:44.539Z,1.03
2022-10-23T11:14:54.330Z,1.70
2022-10-23T11:15:59.780Z,1.07
2022-10-23T11:17:07.137Z,0.37
2022-10-23T11:18:13.831Z,0.67
2022-10-23T11:19:22.255Z,0.20
2022-10-23T11:20:37.307Z,0.63
2022-10-23T11:21:43.338Z,0.17
2022-10-23T11:22:49.874Z,0.50
2022-10-23T11:24:12.137Z,0.57
2022-10-23T11:25:33.862Z,0.33
2022-10-23T11:26:50.264Z,1.13
2022-10-23T11:28:14.246Z,0.50
2022-10-23T11:29:26.015Z,0.50
2022-10-23T11:30:31.689Z,0.67
2022-10-23T11:31:46.305Z,0.73
2022-10-23T11:33:04.277Z,0.60
2022-10-23T11:34:31.130Z,0.73
2022-10-23T11:35:47.742Z,0.40
2022-10-23T11:36:58.203Z,0.20
2022-10-23T11:38:03.224Z,0.63
2022-10-23T11:39:08.515Z,0.77
2022-10-23T11:40:20.771Z,0.97
2022-10-23T11:41:27.028Z,0.73
2022-10-23T11:42:41.779Z,0.30
2022-10-23T11:43:49.079Z,0.20
2022-10-23T11:44:52.819Z,0.17
2022-10-23T11:45:55.408Z,0.40
2022-10-23T11:47:40.355Z,0.23
2022-10-23T11:48:59.321Z,0.70
2022-10-23T11:50:16.110Z,0.47
2022-10-23T11:51:33.030Z,0.20
2022-10-23T11:52:50.743Z,0.70
2022-10-23T11:54:18.502Z,0.40
2022-10-23T11:55:22.530Z,0.20
2022-10-23T11:56:27.103Z,0.20
2022-10-23T11:57:37.277Z,0.73
2022-10-23T11:58:44.186Z,0.53
2022-10-23T11:59:55.261Z,1.63
2022-10-23T12:01:00.400Z,0.07
2022-10-23T12:02:05.718Z,0.50
2022-10-23T12:03:23.296Z,0.03
2022-10-23T12:04:29.834Z,0.27
2022-10-23T12:05:34.959Z,0.10
2022-10-23T12:06:41.162Z,0.30
2022-10-23T12:07:45.033Z,0.50
2022-10-23T12:08:58.233Z,0.60
2022-10-23T12:10:09.284Z,0.50
2022-10-23T12:11:27.591Z,1.33
2022-10-23T12:12:35.367Z,0.63
2022-10-23T12:13:45.840Z,0.13
2022-10-23T12:14:57.288Z,0.50
2022-10-23T12:16:00.982Z,0.20
2022-10-23T12:17:05.390Z,0.13
2022-10-23T12:18:09.707Z,0.57
2022-10-23T12:19:19.740Z,0.30
2022-10-23T12:20:35.247Z,0.30
2022-10-23T12:21:39.753Z,0.40
2022-10-23T12:22:46.493Z,1.07
2022-10-23T12:24:09.115Z,0.20
2022-10-23T12:25:20.273Z,0.13
2022-10-23T12:26:45.795Z,0.70
2022-10-23T12:27:52.333Z,0.30
2022-10-23T12:28:59.396Z,0.70
2022-10-23T12:30:16.086Z,0.50
2022-10-23T12:31:33.259Z,0.30
2022-10-23T12:32:44.825Z,1.33
2022-10-23T12:33:51.999Z,0.50
2022-10-23T12:35:08.064Z,0.20
2022-10-23T12:36:25.251Z,0.97
2022-10-23T12:37:38.375Z,0.10
2022-10-23T12:38:51.319Z,0.47
2022-10-23T12:39:55.260Z,0.20
2022-10-23T12:41:04.754Z,0.20
2022-10-23T12:42:13.167Z,0.13
2022-10-23T12:43:22.428Z,0.10
2022-10-23T12:44:33.276Z,0.50
2022-10-23T12:45:38.504Z,0.20
2022-10-23T12:46:43.534Z,0.20
2022-10-23T12:47:47.657Z,0.40
2022-10-23T12:48:58.276Z,0.77
2022-10-23T12:50:08.534Z,0.30
2022-10-23T12:51:21.536Z,0.30
2022-10-23T12:52:25.733Z,0.37
2022-10-23T12:53:28.399Z,0.13
2022-10-23T12:54:39.293Z,0.43
2022-10-23T12:55:48.524Z,0.70
2022-10-23T12:56:53.156Z,0.40
2022-10-23T12:58:02.334Z,0.30
2022-10-23T12:59:06.848Z,0.30
2022-10-23T13:00:10.593Z,0.50
2022-10-23T13:01:24.852Z,0.60
2022-10-23T13:02:29.889Z,0.43
2022-10-23T13:03:40.278Z,0.20
2022-10-23T13:04:43.849Z,0.43
2022-10-23T13:05:46.566Z,0.70
2022-10-23T13:06:52.015Z,0.30
2022-10-23T13:07:54.842Z,0.83
2022-10-23T13:09:05.263Z,0.40
2022-10-23T13:10:09.216Z,1.10
2022-10-23T13:11:14.629Z,0.93
2022-10-23T13:12:22.476Z,0.40
2022-10-23T13:13:25.465Z,0.20
2022-10-23T13:14:43.575Z,0.37
2022-10-23T13:15:54.282Z,0.27
2022-10-23T13:16:59.897Z,0.40
2022-10-23T13:18:04.467Z,0.30
2022-10-23T13:19:07.011Z,0.20
2022-10-23T13:20:18.278Z,0.10
2022-10-23T13:21:23.253Z,0.47
2022-10-23T13:22:27.164Z,0.40
2022-10-23T13:23:32.447Z,0.10
2022-10-23T13:24:36.023Z,0.40
2022-10-23T13:25:46.278Z,0.50
2022-10-23T13:26:49.844Z,0.10
2022-10-23T13:27:52.927Z,0.20
2022-10-23T13:28:56.413Z,0.07
2022-10-23T13:29:58.970Z,0.40
2022-10-23T13:31:12.269Z,0.13
2022-10-23T13:32:23.733Z,0.30
2022-10-23T13:33:27.188Z,0.73
2022-10-23T13:34:31.137Z,0.30
2022-10-23T13:35:34.163Z,0.70
2022-10-23T13:36:49.074Z,0.13
2022-10-23T13:37:55.988Z,0.10
2022-10-23T13:39:02.326Z,0.27
2022-10-23T13:40:07.682Z,0.83
2022-10-23T13:41:20.284Z,0.53
2022-10-23T13:42:23.769Z,0.70
2022-10-23T13:43:26.918Z,0.57
2022-10-23T13:44:30.377Z,0.70
2022-10-23T13:45:36.530Z,0.63
2022-10-23T13:46:46.479Z,0.57
2022-10-23T13:47:49.100Z,0.20
2022-10-23T13:49:13.279Z,0.10
2022-10-23T13:50:15.853Z,1.03
2022-10-23T13:51:22.052Z,0.20
2022-10-23T13:52:31.301Z,0.83
2022-10-23T13:53:36.117Z,0.53
2022-10-23T13:54:39.578Z,0.30
2022-10-23T13:55:43.736Z,0.73
2022-10-23T13:56:47.650Z,0.17
2022-10-23T13:57:57.264Z,0.40
2022-10-23T13:58:59.798Z,0.83
2022-10-23T14:00:03.258Z,0.43
2022-10-23T14:01:06.031Z,1.43
2022-10-23T14:02:16.681Z,0.30
2022-10-23T14:03:27.383Z,0.10
2022-10-23T14:04:31.237Z,0.50
2022-10-23T14:05:33.897Z,0.20
2022-10-23T14:06:38.350Z,0.70
2022-10-23T14:07:41.055Z,0.40
2022-10-23T14:08:52.279Z,0.00
2022-10-23T14:09:54.847Z,0.20
2022-10-23T14:10:58.266Z,0.13
2022-10-23T14:12:00.833Z,0.20
2022-10-23T14:13:04.345Z,0.20
2022-10-23T14:14:13.287Z,0.00
2022-10-23T14:15:23.352Z,0.10
2022-10-23T14:16:26.927Z,1.07
2022-10-23T14:17:30.421Z,0.73
2022-10-23T14:18:33.087Z,0.87
2022-10-23T14:20:46.296Z,0.10
2022-10-23T14:21:49.778Z,0.30
2022-10-23T14:22:52.267Z,1.53
2022-10-23T14:23:57.107Z,0.97
2022-10-23T14:24:59.635Z,0.73
2022-10-23T14:26:10.536Z,0.40
2022-10-23T14:27:13.077Z,0.03
2022-10-23T14:28:16.567Z,0.70
2022-10-23T14:29:24.100Z,0.50
2022-10-23T14:30:28.040Z,0.60
2022-10-23T14:31:37.302Z,0.13
2022-10-23T14:32:41.029Z,0.37
2022-10-23T14:33:43.919Z,1.07
2022-10-23T14:34:51.585Z,0.77
2022-10-23T14:35:54.129Z,0.10
2022-10-23T14:37:08.833Z,0.63
2022-10-23T14:38:11.717Z,0.83
2022-10-23T14:39:16.492Z,0.30
2022-10-23T14:40:18.996Z,0.10
2022-10-23T14:41:22.629Z,0.20
2022-10-23T14:42:33.884Z,0.10
2022-10-23T14:43:37.483Z,0.60
2022-10-23T14:44:39.980Z,0.37
2022-10-23T14:45:43.539Z,0.17
2022-10-23T14:46:52.299Z,0.20
2022-10-23T14:47:55.818Z,0.27
2022-10-23T14:49:19.290Z,0.17
2022-10-23T14:50:22.784Z,0.10
2022-10-23T14:51:26.195Z,0.03
2022-10-23T14:52:36.358Z,0.00
2022-10-23T14:53:45.317Z,0.20
2022-10-23T14:54:50.220Z,0.07
2022-10-23T14:55:52.770Z,0.10
2022-10-23T14:56:56.180Z,0.30
2022-10-23T14:57:58.794Z,0.50